J0se Eduardo — EA-8620 — position and weather

sailwx.info

Track history (hours):
 
Tides and Currents Weather Stations Pressure Air Temp Water Temp Dewpoint Dewpoint Depression Visibility Wind Speed Wind Dir Waves Ship Positions

J0se Eduardo

Last reported at 2018-Jul-19 17:34 UTC. Time now 2018-Jul-19 22:57 UTC.
Position N 43°31' W 003°40'.

Length 15 m; draft 2 m.

MMSI: 224170740.

Date/timePositionNaut miles runAvg speedWind from/ knotsBaromVisibWave heightAir tempDewpointWater temp
2018-Jul-19 17:34N 43°31' W 003°40'1 8.2
2018-Jul-19 17:27N 43°31' W 003°39'5 0.4
2018-Jul-19 02:45N 43°35' W 003°33'1 3.2
2018-Jul-19 02:30N 43°35' W 003°35'1 1.8
2018-Jul-19 02:00N 43°34' W 003°33'1 0.8
2018-Jul-19 01:22N 43°34' W 003°33'0 0.1
2018-Jul-19 00:58N 43°34' W 003°33'2 5.1
2018-Jul-19 00:30N 43°32' W 003°31'4 7.5
2018-Jul-18 23:59N 43°29' W 003°27'3 6.4
2018-Jul-18 23:30N 43°27' W 003°25'2 0.2
2018-Jul-18 15:49N 43°26' W 003°28'2 6.4
2018-Jul-18 15:30N 43°27' W 003°25'4 7.5
2018-Jul-18 15:00N 43°30' W 003°28'10 1.3
2018-Jul-18 06:55N 43°38' W 003°38'4 1.0
2018-Jul-18 02:21N 43°34' W 003°34'0 0.3
2018-Jul-18 00:39N 43°35' W 003°34'0 0.4
2018-Jul-18 00:30N 43°35' W 003°34'0 0.5
2018-Jul-18 00:00N 43°35' W 003°34'0 0.3
2018-Jul-17 23:30N 43°35' W 003°33'0 0.2
2018-Jul-17 22:59N 43°35' W 003°33'0 0.2
2018-Jul-17 22:20N 43°35' W 003°33'0 0.3
2018-Jul-17 21:58N 43°36' W 003°33'0 0.3
2018-Jul-17 21:28N 43°36' W 003°33'0 0.2
2018-Jul-17 20:48N 43°36' W 003°33'0 0.3
2018-Jul-17 20:26N 43°36' W 003°33'  
2018-Jul-13 01:14N 43°52' W 005°40'2 7.5
2018-Jul-13 00:54N 43°50' W 005°42'3 7.4
2018-Jul-13 00:30N 43°48' W 005°45'4 0.2
2018-Jul-12 03:23N 43°48' W 005°50'4 1.9
2018-Jul-12 01:12N 43°52' W 005°53'2 5.3
2018-Jul-12 00:51N 43°51' W 005°54'0 0.0
2018-Jul-11 01:38N 43°51' W 005°54'0 0.7
2018-Jul-11 01:20N 43°51' W 005°54'3 7.6
2018-Jul-11 00:57N 43°48' W 005°55'4 7.7
2018-Jul-11 00:26N 43°44' W 005°55'3 7.6
2018-Jul-10 23:59N 43°41' W 005°56'  
Track history (hours):
 
Tides and Currents Weather Stations Pressure Air Temp Water Temp Dewpoint Dewpoint Depression Visibility Wind Speed Wind Dir Waves Ship Positions

J0se Eduardo

Last reported at 2018-Jul-19 17:34 UTC. Time now 2018-Jul-19 22:57 UTC.
Position N 43°31' W 003°40'.

Length 15 m; draft 2 m.

MMSI: 224170740.

Date/timePositionNaut miles runAvg speedWind from/ knotsBaromVisibWave heightAir tempDewpointWater temp
2018-Jul-19 17:34N 43°31' W 003°40'1 8.2
2018-Jul-19 17:27N 43°31' W 003°39'5 0.4
2018-Jul-19 02:45N 43°35' W 003°33'1 3.2
2018-Jul-19 02:30N 43°35' W 003°35'1 1.8
2018-Jul-19 02:00N 43°34' W 003°33'1 0.8
2018-Jul-19 01:22N 43°34' W 003°33'0 0.1
2018-Jul-19 00:58N 43°34' W 003°33'2 5.1
2018-Jul-19 00:30N 43°32' W 003°31'4 7.5
2018-Jul-18 23:59N 43°29' W 003°27'3 6.4
2018-Jul-18 23:30N 43°27' W 003°25'2 0.2
2018-Jul-18 15:49N 43°26' W 003°28'2 6.4
2018-Jul-18 15:30N 43°27' W 003°25'4 7.5
2018-Jul-18 15:00N 43°30' W 003°28'10 1.3
2018-Jul-18 06:55N 43°38' W 003°38'4 1.0
2018-Jul-18 02:21N 43°34' W 003°34'0 0.3
2018-Jul-18 00:39N 43°35' W 003°34'0 0.4
2018-Jul-18 00:30N 43°35' W 003°34'0 0.5
2018-Jul-18 00:00N 43°35' W 003°34'0 0.3
2018-Jul-17 23:30N 43°35' W 003°33'0 0.2
2018-Jul-17 22:59N 43°35' W 003°33'0 0.2
2018-Jul-17 22:20N 43°35' W 003°33'0 0.3
2018-Jul-17 21:58N 43°36' W 003°33'0 0.3
2018-Jul-17 21:28N 43°36' W 003°33'0 0.2
2018-Jul-17 20:48N 43°36' W 003°33'0 0.3
2018-Jul-17 20:26N 43°36' W 003°33'  
2018-Jul-13 01:14N 43°52' W 005°40'2 7.5
2018-Jul-13 00:54N 43°50' W 005°42'3 7.4
2018-Jul-13 00:30N 43°48' W 005°45'4 0.2
2018-Jul-12 03:23N 43°48' W 005°50'4 1.9
2018-Jul-12 01:12N 43°52' W 005°53'2 5.3
2018-Jul-12 00:51N 43°51' W 005°54'0 0.0
2018-Jul-11 01:38N 43°51' W 005°54'0 0.7
2018-Jul-11 01:20N 43°51' W 005°54'3 7.6
2018-Jul-11 00:57N 43°48' W 005°55'4 7.7
2018-Jul-11 00:26N 43°44' W 005°55'3 7.6
2018-Jul-10 23:59N 43°41' W 005°56'  

Dump ship's entire track history